sensor_id;sensor_type;location;lat;lon;timestamp;pressure;altitude;pressure_sealevel;temperature;humidity
4012;BME280;2020;48.682;9.024;2023-02-24T00:02:13;95981.47;;;7.20;100.00
4012;BME280;2020;48.682;9.024;2023-02-24T00:04:39;95975.78;;;7.16;100.00
4012;BME280;2020;48.682;9.024;2023-02-24T00:07:06;95976.22;;;7.12;100.00
4012;BME280;2020;48.682;9.024;2023-02-24T00:09:31;95976.22;;;7.12;100.00
4012;BME280;2020;48.682;9.024;2023-02-24T00:12:06;95979.16;;;7.17;100.00
4012;BME280;2020;48.682;9.024;2023-02-24T00:14:36;95982.44;;;7.19;100.00
4012;BME280;2020;48.682;9.024;2023-02-24T00:17:02;95977.69;;;7.14;100.00
4012;BME280;2020;48.682;9.024;2023-02-24T00:19:29;95974.94;;;7.16;100.00
4012;BME280;2020;48.682;9.024;2023-02-24T00:21:58;95967.19;;;7.16;100.00
4012;BME280;2020;48.682;9.024;2023-02-24T00:24:24;95967.84;;;7.18;100.00
4012;BME280;2020;48.682;9.024;2023-02-24T00:26:58;95965.28;;;7.18;100.00
4012;BME280;2020;48.682;9.024;2023-02-24T00:29:24;95968.53;;;7.20;100.00
4012;BME280;2020;48.682;9.024;2023-02-24T00:31:50;95968.81;;;7.17;100.00
4012;BME280;2020;48.682;9.024;2023-02-24T00:34:23;95970.16;;;7.21;100.00
4012;BME280;2020;48.682;9.024;2023-02-24T00:36:49;95967.72;;;7.20;100.00
4012;BME280;2020;48.682;9.024;2023-02-24T00:39:14;95962.53;;;7.20;100.00
4012;BME280;2020;48.682;9.024;2023-02-24T00:41:41;95962.59;;;7.10;100.00
4012;BME280;2020;48.682;9.024;2023-02-24T00:44:08;95964.22;;;7.11;100.00
4012;BME280;2020;48.682;9.024;2023-02-24T00:46:45;95955.78;;;7.09;100.00
4012;BME280;2020;48.682;9.024;2023-02-24T00:49:14;95957.13;;;7.13;100.00
4012;BME280;2020;48.682;9.024;2023-02-24T00:51:42;95953.88;;;7.11;100.00
4012;BME280;2020;48.682;9.024;2023-02-24T00:54:09;95953.22;;;7.09;100.00
4012;BME280;2020;48.682;9.024;2023-02-24T00:56:39;95949.06;;;7.16;100.00
4012;BME280;2020;48.682;9.024;2023-02-24T00:59:04;95948.69;;;7.11;100.00
4012;BME280;2020;48.682;9.024;2023-02-24T01:01:31;95945.97;;;7.12;100.00
4012;BME280;2020;48.682;9.024;2023-02-24T01:03:58;95945.44;;;7.09;100.00
4012;BME280;2020;48.682;9.024;2023-02-24T01:06:26;95943.00;;;7.07;100.00
4012;BME280;2020;48.682;9.024;2023-02-24T01:08:52;95935.09;;;7.09;100.00
4012;BME280;2020;48.682;9.024;2023-02-24T01:11:26;95929.91;;;7.09;100.00
4012;BME280;2020;48.682;9.024;2023-02-24T01:14:13;95926.38;;;7.10;100.00
4012;BME280;2020;48.682;9.024;2023-02-24T01:16:40;95928.00;;;7.11;100.00
4012;BME280;2020;48.682;9.024;2023-02-24T01:19:07;95933.72;;;7.14;100.00
4012;BME280;2020;48.682;9.024;2023-02-24T01:21:33;95926.44;;;7.18;100.00
4012;BME280;2020;48.682;9.024;2023-02-24T01:23:58;95925.78;;;7.16;100.00
4012;BME280;2020;48.682;9.024;2023-02-24T01:26:24;95925.47;;;7.19;100.00
4012;BME280;2020;48.682;9.024;2023-02-24T01:28:50;95923.19;;;7.16;100.00
4012;BME280;2020;48.682;9.024;2023-02-24T01:31:16;95920.00;;;7.22;100.00
4012;BME280;2020;48.682;9.024;2023-02-24T01:33:46;95916.75;;;7.20;100.00
4012;BME280;2020;48.682;9.024;2023-02-24T01:36:14;95912.63;;;7.27;100.00
4012;BME280;2020;48.682;9.024;2023-02-24T01:38:40;95917.53;;;7.30;100.00
4012;BME280;2020;48.682;9.024;2023-02-24T01:41:11;95911.38;;;7.31;100.00
4012;BME280;2020;48.682;9.024;2023-02-24T01:43:54;95915.31;;;7.36;100.00
4012;BME280;2020;48.682;9.024;2023-02-24T01:46:20;95920.47;;;7.36;100.00
4012;BME280;2020;48.682;9.024;2023-02-24T01:48:48;95918.50;;;7.29;100.00
4012;BME280;2020;48.682;9.024;2023-02-24T01:51:14;95920.53;;;7.26;100.00
4012;BME280;2020;48.682;9.024;2023-02-24T01:53:41;95915.38;;;7.26;100.00
4012;BME280;2020;48.682;9.024;2023-02-24T01:56:06;95909.38;;;7.25;100.00
4012;BME280;2020;48.682;9.024;2023-02-24T01:58:32;95909.66;;;7.22;100.00
4012;BME280;2020;48.682;9.024;2023-02-24T02:00:58;95908.56;;;7.25;100.00
4012;BME280;2020;48.682;9.024;2023-02-24T02:03:27;95900.94;;;7.23;100.00
4012;BME280;2020;48.682;9.024;2023-02-24T02:05:59;95904.19;;;7.25;100.00
4012;BME280;2020;48.682;9.024;2023-02-24T02:08:26;95900.94;;;7.23;100.00
4012;BME280;2020;48.682;9.024;2023-02-24T02:10:53;95908.03;;;7.21;100.00
4012;BME280;2020;48.682;9.024;2023-02-24T02:13:24;95902.41;;;7.08;100.00
4012;BME280;2020;48.682;9.024;2023-02-24T02:15:56;95898.84;;;7.09;100.00
4012;BME280;2020;48.682;9.024;2023-02-24T02:18:51;95903.59;;;7.13;100.00
4012;BME280;2020;48.682;9.024;2023-02-24T02:21:48;95901.81;;;7.14;100.00
4012;BME280;2020;48.682;9.024;2023-02-24T02:27:48;95881.66;;;7.17;100.00
4012;BME280;2020;48.682;9.024;2023-02-24T02:35:35;95868.84;;;7.16;100.00
4012;BME280;2020;48.682;9.024;2023-02-24T02:38:46;95880.97;;;7.15;100.00
4012;BME280;2020;48.682;9.024;2023-02-24T02:41:34;95868.84;;;7.16;100.00
4012;BME280;2020;48.682;9.024;2023-02-24T02:44:23;95861.31;;;7.05;100.00
4012;BME280;2020;48.682;9.024;2023-02-24T02:47:12;95864.06;;;7.03;100.00
4012;BME280;2020;48.682;9.024;2023-02-24T02:49:44;95863.75;;;7.06;100.00
4012;BME280;2020;48.682;9.024;2023-02-24T02:52:41;95873.28;;;7.06;100.00
4012;BME280;2020;48.682;9.024;2023-02-24T02:55:09;95862.94;;;7.06;100.00
4012;BME280;2020;48.682;9.024;2023-02-24T02:57:43;95855.03;;;7.07;100.00
4012;BME280;2020;48.682;9.024;2023-02-24T03:00:48;95856.78;;;7.07;100.00
4012;BME280;2020;48.682;9.024;2023-02-24T03:03:12;95846.00;;;7.11;100.00
4012;BME280;2020;48.682;9.024;2023-02-24T03:05:46;95850.06;;;7.14;100.00
4012;BME280;2020;48.682;9.024;2023-02-24T03:08:17;95841.63;;;7.12;100.00
4012;BME280;2020;48.682;9.024;2023-02-24T03:10:45;95842.47;;;7.12;100.00
4012;BME280;2020;48.682;9.024;2023-02-24T03:13:17;95839.88;;;7.12;100.00
4012;BME280;2020;48.682;9.024;2023-02-24T03:15:45;95834.69;;;7.12;100.00
4012;BME280;2020;48.682;9.024;2023-02-24T03:18:17;95832.91;;;7.13;100.00
4012;BME280;2020;48.682;9.024;2023-02-24T03:20:48;95839.09;;;7.20;100.00
4012;BME280;2020;48.682;9.024;2023-02-24T03:23:18;95837.47;;;7.19;100.00
4012;BME280;2020;48.682;9.024;2023-02-24T03:28:45;95840.22;;;7.17;100.00
4012;BME280;2020;48.682;9.024;2023-02-24T03:31:19;95829.06;;;7.17;100.00
4012;BME280;2020;48.682;9.024;2023-02-24T03:34:05;95831.28;;;7.12;100.00
4012;BME280;2020;48.682;9.024;2023-02-24T03:36:32;95838.09;;;7.13;100.00
4012;BME280;2020;48.682;9.024;2023-02-24T03:38:58;95832.25;;;7.11;100.00
4012;BME280;2020;48.682;9.024;2023-02-24T03:41:34;95830.25;;;7.05;100.00
4012;BME280;2020;48.682;9.024;2023-02-24T03:44:03;95830.53;;;7.01;100.00
4012;BME280;2020;48.682;9.024;2023-02-24T03:46:31;95823.44;;;7.03;100.00
4012;BME280;2020;48.682;9.024;2023-02-24T03:49:03;95836.38;;;7.03;100.00
4012;BME280;2020;48.682;9.024;2023-02-24T03:51:32;95831.56;;;7.09;100.00
4012;BME280;2020;48.682;9.024;2023-02-24T03:56:44;95829.81;;;7.09;100.00
4012;BME280;2020;48.682;9.024;2023-02-24T04:01:53;95821.22;;;7.09;100.00
4012;BME280;2020;48.682;9.024;2023-02-24T04:04:45;95813.03;;;7.13;100.00
4012;BME280;2020;48.682;9.024;2023-02-24T04:07:17;95817.69;;;7.10;100.00
4012;BME280;2020;48.682;9.024;2023-02-24T04:10:25;95817.69;;;7.10;100.00
4012;BME280;2020;48.682;9.024;2023-02-24T04:12:57;95817.31;;;7.05;100.00
4012;BME280;2020;48.682;9.024;2023-02-24T04:15:29;95812.06;;;6.96;100.00
4012;BME280;2020;48.682;9.024;2023-02-24T04:18:02;95814.53;;;6.98;100.00
4012;BME280;2020;48.682;9.024;2023-02-24T04:20:33;95813.09;;;7.03;100.00
4012;BME280;2020;48.682;9.024;2023-02-24T04:23:04;95818.56;;;7.00;100.00
4012;BME280;2020;48.682;9.024;2023-02-24T04:25:33;95818.88;;;6.97;100.00
4012;BME280;2020;48.682;9.024;2023-02-24T04:28:00;95806.53;;;6.91;100.00
4012;BME280;2020;48.682;9.024;2023-02-24T04:30:32;95811.09;;;6.97;100.00
4012;BME280;2020;48.682;9.024;2023-02-24T04:32:58;95809.19;;;6.99;100.00
4012;BME280;2020;48.682;9.024;2023-02-24T04:35:24;95804.66;;;7.01;100.00
4012;BME280;2020;48.682;9.024;2023-02-24T04:37:53;95800.63;;;6.99;100.00
4012;BME280;2020;48.682;9.024;2023-02-24T04:40:20;95803.94;;;6.91;100.00
4012;BME280;2020;48.682;9.024;2023-02-24T04:42:50;95802.84;;;6.94;100.00
4012;BME280;2020;48.682;9.024;2023-02-24T04:47:44;95790.94;;;6.83;100.00
4012;BME280;2020;48.682;9.024;2023-02-24T04:50:13;95787.03;;;6.79;100.00
4012;BME280;2020;48.682;9.024;2023-02-24T04:52:54;95795.75;;;6.78;100.00
4012;BME280;2020;48.682;9.024;2023-02-24T04:55:22;95788.28;;;6.75;100.00
4012;BME280;2020;48.682;9.024;2023-02-24T04:57:51;95788.28;;;6.75;100.00
4012;BME280;2020;48.682;9.024;2023-02-24T05:00:16;95783.09;;;6.75;100.00
4012;BME280;2020;48.682;9.024;2023-02-24T05:02:50;95787.25;;;6.67;100.00
4012;BME280;2020;48.682;9.024;2023-02-24T05:05:17;95782.38;;;6.64;100.00
4012;BME280;2020;48.682;9.024;2023-02-24T05:07:44;95778.53;;;6.68;100.00
4012;BME280;2020;48.682;9.024;2023-02-24T05:10:12;95784.81;;;6.66;100.00
4012;BME280;2020;48.682;9.024;2023-02-24T05:12:38;95777.78;;;6.58;100.00
4012;BME280;2020;48.682;9.024;2023-02-24T05:15:05;95781.03;;;6.60;100.00
4012;BME280;2020;48.682;9.024;2023-02-24T05:17:31;95770.41;;;6.63;100.00
4012;BME280;2020;48.682;9.024;2023-02-24T05:19:56;95765.75;;;6.67;100.00
4012;BME280;2020;48.682;9.024;2023-02-24T05:22:40;95765.22;;;6.63;100.00
4012;BME280;2020;48.682;9.024;2023-02-24T05:25:06;95756.81;;;6.61;100.00
4012;BME280;2020;48.682;9.024;2023-02-24T05:27:32;95757.84;;;6.68;100.00
4012;BME280;2020;48.682;9.024;2023-02-24T05:29:59;95754.88;;;6.63;100.00
4012;BME280;2020;48.682;9.024;2023-02-24T05:32:24;95757.91;;;6.58;100.00
4012;BME280;2020;48.682;9.024;2023-02-24T05:34:49;95750.00;;;6.60;100.00
4012;BME280;2020;48.682;9.024;2023-02-24T05:37:15;95748.69;;;6.56;100.00
4012;BME280;2020;48.682;9.024;2023-02-24T05:39:40;95747.66;;;6.49;100.00
4012;BME280;2020;48.682;9.024;2023-02-24T05:42:06;95738.94;;;6.50;100.00
4012;BME280;2020;48.682;9.024;2023-02-24T05:44:32;95737.50;;;6.55;100.00
4012;BME280;2020;48.682;9.024;2023-02-24T05:46:59;95734.78;;;6.57;100.00
4012;BME280;2020;48.682;9.024;2023-02-24T05:49:27;95724.16;;;6.60;100.00
4012;BME280;2020;48.682;9.024;2023-02-24T05:51:56;95721.19;;;6.55;100.00
4012;BME280;2020;48.682;9.024;2023-02-24T05:54:27;95716.03;;;6.55;100.00
4012;BME280;2020;48.682;9.024;2023-02-24T05:56:55;95722.28;;;6.52;100.00
4012;BME280;2020;48.682;9.024;2023-02-24T05:59:22;95712.78;;;6.53;100.00
4012;BME280;2020;48.682;9.024;2023-02-24T06:01:49;95718.09;;;6.33;100.00
4012;BME280;2020;48.682;9.024;2023-02-24T06:04:18;95718.09;;;6.33;100.00
4012;BME280;2020;48.682;9.024;2023-02-24T06:07:09;95712.94;;;6.33;100.00
4012;BME280;2020;48.682;9.024;2023-02-24T06:09:37;95714.25;;;6.37;100.00
4012;BME280;2020;48.682;9.024;2023-02-24T06:12:06;95710.41;;;6.41;100.00
4012;BME280;2020;48.682;9.024;2023-02-24T06:14:32;95704.66;;;6.48;100.00
4012;BME280;2020;48.682;9.024;2023-02-24T06:16:58;95708.50;;;6.43;100.00
4012;BME280;2020;48.682;9.024;2023-02-24T06:19:26;95698.16;;;6.43;100.00
4012;BME280;2020;48.682;9.024;2023-02-24T06:21:51;95704.97;;;6.44;100.00
4012;BME280;2020;48.682;9.024;2023-02-24T06:24:17;95705.63;;;6.47;100.00
4012;BME280;2020;48.682;9.024;2023-02-24T06:26:43;95703.84;;;6.47;100.00
4012;BME280;2020;48.682;9.024;2023-02-24T06:29:14;95702.75;;;6.50;100.00
4012;BME280;2020;48.682;9.024;2023-02-24T06:31:40;95707.91;;;6.50;100.00
4012;BME280;2020;48.682;9.024;2023-02-24T06:34:06;95704.97;;;6.44;100.00
4012;BME280;2020;48.682;9.024;2023-02-24T06:36:35;95704.00;;;6.46;100.00
4012;BME280;2020;48.682;9.024;2023-02-24T06:39:01;95702.66;;;6.41;100.00
4012;BME280;2020;48.682;9.024;2023-02-24T06:41:26;95704.66;;;6.48;100.00
4012;BME280;2020;48.682;9.024;2023-02-24T06:43:53;95700.81;;;6.52;100.00
4012;BME280;2020;48.682;9.024;2023-02-24T06:46:18;95698.88;;;6.54;100.00
4012;BME280;2020;48.682;9.024;2023-02-24T06:48:44;95696.44;;;6.52;100.00
4012;BME280;2020;48.682;9.024;2023-02-24T06:51:14;95692.16;;;6.61;100.00
4012;BME280;2020;48.682;9.024;2023-02-24T06:53:42;95700.81;;;6.52;100.00
4012;BME280;2020;48.682;9.024;2023-02-24T06:56:13;95697.25;;;6.53;100.00
4012;BME280;2020;48.682;9.024;2023-02-24T06:58:43;95703.75;;;6.57;100.00
4012;BME280;2020;48.682;9.024;2023-02-24T07:01:10;95698.38;;;6.50;100.00
4012;BME280;2020;48.682;9.024;2023-02-24T07:03:37;95699.19;;;6.51;100.00
4012;BME280;2020;48.682;9.024;2023-02-24T07:06:10;95702.44;;;6.53;100.00
4012;BME280;2020;48.682;9.024;2023-02-24T07:08:46;95702.13;;;6.56;100.00
4012;BME280;2020;48.682;9.024;2023-02-24T07:11:12;95697.75;;;6.56;100.00
4012;BME280;2020;48.682;9.024;2023-02-24T07:13:38;95692.47;;;6.58;100.00
4012;BME280;2020;48.682;9.024;2023-02-24T07:16:05;95694.38;;;6.56;100.00
4012;BME280;2020;48.682;9.024;2023-02-24T07:18:35;95696.00;;;6.57;100.00
4012;BME280;2020;48.682;9.024;2023-02-24T07:21:04;95696.00;;;6.57;100.00
4012;BME280;2020;48.682;9.024;2023-02-24T07:23:35;95689.88;;;6.58;100.00
4012;BME280;2020;48.682;9.024;2023-02-24T07:26:05;95688.75;;;6.61;100.00
4012;BME280;2020;48.682;9.024;2023-02-24T07:28:34;95682.47;;;6.63;100.00
4012;BME280;2020;48.682;9.024;2023-02-24T07:30:59;95680.63;;;6.55;100.00
4012;BME280;2020;48.682;9.024;2023-02-24T07:33:25;95677.91;;;6.57;100.00
4012;BME280;2020;48.682;9.024;2023-02-24T07:35:50;95675.97;;;6.59;100.00
4012;BME280;2020;48.682;9.024;2023-02-24T07:38:16;95675.16;;;6.58;100.00
4012;BME280;2020;48.682;9.024;2023-02-24T07:40:47;95672.44;;;6.60;100.00
4012;BME280;2020;48.682;9.024;2023-02-24T07:43:12;95668.88;;;6.61;100.00
4012;BME280;2020;48.682;9.024;2023-02-24T07:45:40;95671.13;;;6.56;100.00
4012;BME280;2020;48.682;9.024;2023-02-24T07:48:05;95667.56;;;6.57;100.00
4012;BME280;2020;48.682;9.024;2023-02-24T07:50:30;95667.56;;;6.57;100.00
4012;BME280;2020;48.682;9.024;2023-02-24T07:52:56;95673.03;;;6.54;100.00
4012;BME280;2020;48.682;9.024;2023-02-24T07:55:22;95672.75;;;6.57;100.00
4012;BME280;2020;48.682;9.024;2023-02-24T07:57:49;95672.44;;;6.60;100.00
4012;BME280;2020;48.682;9.024;2023-02-24T08:00:16;95665.66;;;6.59;100.00
4012;BME280;2020;48.682;9.024;2023-02-24T08:02:45;95670.22;;;6.65;100.00
4012;BME280;2020;48.682;9.024;2023-02-24T08:05:10;95669.91;;;6.68;100.00
4012;BME280;2020;48.682;9.024;2023-02-24T08:07:36;95670.81;;;6.59;100.00
4012;BME280;2020;48.682;9.024;2023-02-24T08:10:01;95674.06;;;6.61;100.00
4012;BME280;2020;48.682;9.024;2023-02-24T08:12:48;95668.88;;;6.61;100.00
4012;BME280;2020;48.682;9.024;2023-02-24T08:15:16;95667.50;;;6.67;100.00
4012;BME280;2020;48.682;9.024;2023-02-24T08:17:45;95662.63;;;6.64;100.00
4012;BME280;2020;48.682;9.024;2023-02-24T08:20:11;95672.38;;;6.70;100.00
4012;BME280;2020;48.682;9.024;2023-02-24T08:22:38;95665.75;;;6.76;100.00
4012;BME280;2020;48.682;9.024;2023-02-24T08:25:08;95664.13;;;6.75;100.00
4012;BME280;2020;48.682;9.024;2023-02-24T08:27:35;95653.28;;;6.71;100.00
4012;BME280;2020;48.682;9.024;2023-02-24T08:30:08;95653.78;;;6.75;100.00
4012;BME280;2020;48.682;9.024;2023-02-24T08:32:39;95652.78;;;6.67;100.00
4012;BME280;2020;48.682;9.024;2023-02-24T08:35:15;95647.47;;;6.51;100.00
4012;BME280;2020;48.682;9.024;2023-02-24T08:40:13;95658.50;;;6.35;100.00
4012;BME280;2020;48.682;9.024;2023-02-24T08:43:12;95649.13;;;6.16;100.00
4012;BME280;2020;48.682;9.024;2023-02-24T08:45:52;95648.84;;;6.19;100.00
4012;BME280;2020;48.682;9.024;2023-02-24T08:48:23;95635.69;;;6.30;100.00
4012;BME280;2020;48.682;9.024;2023-02-24T08:51:09;95633.06;;;6.48;100.00
4012;BME280;2020;48.682;9.024;2023-02-24T08:53:36;95638.41;;;6.47;100.00
4012;BME280;2020;48.682;9.024;2023-02-24T08:56:06;95634.09;;;6.55;100.00
4012;BME280;2020;48.682;9.024;2023-02-24T08:58:37;95635.22;;;6.53;100.00
4012;BME280;2020;48.682;9.024;2023-02-24T09:01:10;95629.81;;;6.64;100.00
4012;BME280;2020;48.682;9.024;2023-02-24T09:03:44;95632.31;;;6.74;100.00
4012;BME280;2020;48.682;9.024;2023-02-24T09:06:11;95622.16;;;6.81;100.00
4012;BME280;2020;48.682;9.024;2023-02-24T09:08:38;95630.13;;;6.87;100.00
4012;BME280;2020;48.682;9.024;2023-02-24T09:11:07;95623.84;;;6.98;100.00
4012;BME280;2020;48.682;9.024;2023-02-24T09:13:34;95623.81;;;6.90;100.00
4012;BME280;2020;48.682;9.024;2023-02-24T09:16:02;95623.84;;;6.98;100.00
4012;BME280;2020;48.682;9.024;2023-02-24T09:18:28;95620.31;;;6.99;100.00
4012;BME280;2020;48.682;9.024;2023-02-24T09:21:07;95618.38;;;7.01;100.00
4012;BME280;2020;48.682;9.024;2023-02-24T09:23:51;95618.69;;;6.98;100.00
4012;BME280;2020;48.682;9.024;2023-02-24T09:26:17;95614.22;;;7.09;100.00
4012;BME280;2020;48.682;9.024;2023-02-24T09:28:44;95609.34;;;7.06;100.00
4012;BME280;2020;48.682;9.024;2023-02-24T09:31:21;95612.19;;;6.94;100.00
4012;BME280;2020;48.682;9.024;2023-02-24T09:34:06;95608.34;;;6.98;100.00
4012;BME280;2020;48.682;9.024;2023-02-24T09:36:34;95606.09;;;7.03;100.00
4012;BME280;2020;48.682;9.024;2023-02-24T09:39:09;95609.03;;;7.09;100.00
4012;BME280;2020;48.682;9.024;2023-02-24T09:41:46;95601.22;;;7.00;100.00
4012;BME280;2020;48.682;9.024;2023-02-24T09:44:40;95596.13;;;7.17;100.00
4012;BME280;2020;48.682;9.024;2023-02-24T09:47:37;95601.31;;;7.17;100.00
4012;BME280;2020;48.682;9.024;2023-02-24T09:52:54;95597.22;;;7.41;100.00
4012;BME280;2020;48.682;9.024;2023-02-24T10:07:07;95576.91;;;7.79;94.27
4012;BME280;2020;48.682;9.024;2023-02-24T10:12:20;95574.97;;;7.81;92.87
4012;BME280;2020;48.682;9.024;2023-02-24T10:15:13;95574.66;;;7.93;94.53
4012;BME280;2020;48.682;9.024;2023-02-24T10:17:59;95577.25;;;8.01;92.94
4012;BME280;2020;48.682;9.024;2023-02-24T10:20:36;95573.88;;;8.09;91.19
4012;BME280;2020;48.682;9.024;2023-02-24T10:23:14;95562.03;;;8.14;92.61
4012;BME280;2020;48.682;9.024;2023-02-24T10:25:54;95558.31;;;8.09;89.88
4012;BME280;2020;48.682;9.024;2023-02-24T10:28:52;95548.75;;;8.09;91.15
4012;BME280;2020;48.682;9.024;2023-02-24T10:31:27;95548.41;;;8.04;89.76
4012;BME280;2020;48.682;9.024;2023-02-24T10:34:03;95552.94;;;8.18;91.20
4012;BME280;2020;48.682;9.024;2023-02-24T10:36:32;95545.50;;;7.90;89.61
4012;BME280;2020;48.682;9.024;2023-02-24T10:39:21;95552.97;;;8.02;90.86
4012;BME280;2020;48.682;9.024;2023-02-24T10:41:52;95540.00;;;7.94;90.26
4012;BME280;2020;48.682;9.024;2023-02-24T10:44:23;95542.59;;;7.85;90.26
4012;BME280;2020;48.682;9.024;2023-02-24T10:47:05;95544.53;;;8.00;92.00
4012;BME280;2020;48.682;9.024;2023-02-24T10:49:48;95540.31;;;8.07;91.84
4012;BME280;2020;48.682;9.024;2023-02-24T10:52:30;95534.16;;;8.00;90.26
4012;BME280;2020;48.682;9.024;2023-02-24T10:58:32;95522.69;;;8.02;90.44
4012;BME280;2020;48.682;9.024;2023-02-24T11:01:29;95524.13;;;7.97;91.67
4012;BME280;2020;48.682;9.024;2023-02-24T11:04:15;95517.00;;;7.99;91.04
4012;BME280;2020;48.682;9.024;2023-02-24T11:07:05;95516.03;;;7.92;90.95
4012;BME280;2020;48.682;9.024;2023-02-24T11:09:35;95510.53;;;7.95;91.62
4012;BME280;2020;48.682;9.024;2023-02-24T11:12:29;95515.06;;;8.01;91.37
4012;BME280;2020;48.682;9.024;2023-02-24T11:15:20;95511.81;;;7.90;92.30
4012;BME280;2020;48.682;9.024;2023-02-24T11:18:05;95509.88;;;7.76;93.46
4012;BME280;2020;48.682;9.024;2023-02-24T11:20:35;95506.00;;;7.72;94.19
4012;BME280;2020;48.682;9.024;2023-02-24T11:23:05;95506.00;;;7.72;95.39
4012;BME280;2020;48.682;9.024;2023-02-24T11:25:37;95505.81;;;7.65;94.08
4012;BME280;2020;48.682;9.024;2023-02-24T11:33:36;95483.97;;;7.68;94.58
4012;BME280;2020;48.682;9.024;2023-02-24T11:42:01;95460.47;;;7.78;92.64
4012;BME280;2020;48.682;9.024;2023-02-24T11:44:57;95463.06;;;7.86;92.70
4012;BME280;2020;48.682;9.024;2023-02-24T11:47:33;95454.50;;;7.85;92.55
4012;BME280;2020;48.682;9.024;2023-02-24T11:52:35;95436.84;;;7.97;92.09
4012;BME280;2020;48.682;9.024;2023-02-24T11:55:04;95421.75;;;8.09;91.80
4012;BME280;2020;48.682;9.024;2023-02-24T11:57:42;95418.47;;;8.24;90.87
4012;BME280;2020;48.682;9.024;2023-02-24T12:00:20;95413.88;;;8.42;90.10
4012;BME280;2020;48.682;9.024;2023-02-24T12:03:13;95401.50;;;8.61;89.21
4012;BME280;2020;48.682;9.024;2023-02-24T12:05:46;95403.06;;;8.78;88.33
4012;BME280;2020;48.682;9.024;2023-02-24T12:10:50;95397.09;;;9.71;84.68
4012;BME280;2020;48.682;9.024;2023-02-24T12:13:49;95385.41;;;10.20;81.73
4012;BME280;2020;48.682;9.024;2023-02-24T12:16:21;95392.47;;;10.12;80.05
4012;BME280;2020;48.682;9.024;2023-02-24T12:18:58;95388.03;;;9.82;79.79
4012;BME280;2020;48.682;9.024;2023-02-24T12:21:35;95377.38;;;9.77;79.81
4012;BME280;2020;48.682;9.024;2023-02-24T12:24:03;95374.53;;;9.87;79.98
4012;BME280;2020;48.682;9.024;2023-02-24T12:34:58;95358.31;;;10.00;77.44
4012;BME280;2020;48.682;9.024;2023-02-24T12:40:21;95356.38;;;9.63;78.22
4012;BME280;2020;48.682;9.024;2023-02-24T12:45:39;95354.22;;;9.52;79.39
4012;BME280;2020;48.682;9.024;2023-02-24T12:48:20;95343.81;;;9.37;79.39
4012;BME280;2020;48.682;9.024;2023-02-24T12:51:24;95346.34;;;9.22;78.47
4012;BME280;2020;48.682;9.024;2023-02-24T12:54:05;95343.69;;;9.30;80.00
4012;BME280;2020;48.682;9.024;2023-02-24T12:59:17;95335.13;;;9.21;79.86
4012;BME280;2020;48.682;9.024;2023-02-24T13:01:53;95322.44;;;9.27;80.04
4012;BME280;2020;48.682;9.024;2023-02-24T13:04:35;95320.59;;;9.35;79.86
4012;BME280;2020;48.682;9.024;2023-02-24T13:07:28;95311.72;;;9.30;79.64
4012;BME280;2020;48.682;9.024;2023-02-24T13:13:04;95309.78;;;9.09;81.26
4012;BME280;2020;48.682;9.024;2023-02-24T13:15:31;95303.06;;;9.14;82.01
4012;BME280;2020;48.682;9.024;2023-02-24T13:17:57;95299.41;;;9.09;81.12
4012;BME280;2020;48.682;9.024;2023-02-24T13:20:29;95298.06;;;9.13;81.81
4012;BME280;2020;48.682;9.024;2023-02-24T13:22:55;95291.63;;;9.24;80.85
4012;BME280;2020;48.682;9.024;2023-02-24T13:25:30;95292.47;;;9.24;80.79
4012;BME280;2020;48.682;9.024;2023-02-24T13:28:55;95293.25;;;9.25;80.49
4012;BME280;2020;48.682;9.024;2023-02-24T13:30:57;95283.69;;;9.25;79.81
4012;BME280;2020;48.682;9.024;2023-02-24T13:33:32;95280.66;;;9.36;80.99
4012;BME280;2020;48.682;9.024;2023-02-24T13:36:16;95280.66;;;9.36;79.13
4012;BME280;2020;48.682;9.024;2023-02-24T13:38:47;95275.38;;;9.30;78.79
4012;BME280;2020;48.682;9.024;2023-02-24T13:41:21;95268.09;;;9.25;79.20
4012;BME280;2020;48.682;9.024;2023-02-24T13:43:58;95269.44;;;9.21;79.09
4012;BME280;2020;48.682;9.024;2023-02-24T13:46:26;95266.84;;;9.21;78.33
4012;BME280;2020;48.682;9.024;2023-02-24T13:51:52;95255.19;;;9.17;76.94
4012;BME280;2020;48.682;9.024;2023-02-24T13:54:28;95254.50;;;9.23;77.28
4012;BME280;2020;48.682;9.024;2023-02-24T14:02:37;95233.53;;;9.10;76.72
4012;BME280;2020;48.682;9.024;2023-02-24T14:05:10;95234.22;;;9.03;77.58
4012;BME280;2020;48.682;9.024;2023-02-24T14:07:40;95244.63;;;9.03;77.84
4012;BME280;2020;48.682;9.024;2023-02-24T14:10:17;95245.75;;;9.01;78.15
4012;BME280;2020;48.682;9.024;2023-02-24T14:12:44;95235.28;;;8.94;78.07
4012;BME280;2020;48.682;9.024;2023-02-24T14:15:23;95230.03;;;9.02;78.86
4012;BME280;2020;48.682;9.024;2023-02-24T14:18:04;95231.34;;;8.98;78.67
4012;BME280;2020;48.682;9.024;2023-02-24T14:20:31;95229.03;;;9.03;78.56
4012;BME280;2020;48.682;9.024;2023-02-24T14:22:58;95222.25;;;9.02;78.54
4012;BME280;2020;48.682;9.024;2023-02-24T14:25:26;95223.50;;;9.06;78.81
4012;BME280;2020;48.682;9.024;2023-02-24T14:27:54;95214.72;;;9.07;79.05
4012;BME280;2020;48.682;9.024;2023-02-24T14:30:35;95207.66;;;9.01;78.83
4012;BME280;2020;48.682;9.024;2023-02-24T14:33:01;95198.25;;;9.00;79.26
4012;BME280;2020;48.682;9.024;2023-02-24T14:35:36;95191.88;;;9.03;79.75
4012;BME280;2020;48.682;9.024;2023-02-24T14:38:03;95201.91;;;9.06;79.46
4012;BME280;2020;48.682;9.024;2023-02-24T14:40:29;95203.53;;;9.07;79.73
4012;BME280;2020;48.682;9.024;2023-02-24T14:42:54;95204.34;;;9.07;79.49
4012;BME280;2020;48.682;9.024;2023-02-24T14:45:25;95207.56;;;9.10;79.40
4012;BME280;2020;48.682;9.024;2023-02-24T14:47:52;95198.88;;;9.02;78.50
4012;BME280;2020;48.682;9.024;2023-02-24T14:50:21;95196.63;;;8.99;78.71
4012;BME280;2020;48.682;9.024;2023-02-24T14:55:22;95188.03;;;8.99;77.72
4012;BME280;2020;48.682;9.024;2023-02-24T14:57:55;95192.25;;;9.00;78.30
4012;BME280;2020;48.682;9.024;2023-02-24T15:00:35;95181.06;;;8.99;78.57
4012;BME280;2020;48.682;9.024;2023-02-24T15:05:54;95185.16;;;8.78;76.79
4012;BME280;2020;48.682;9.024;2023-02-24T15:08:43;95167.63;;;8.81;77.73
4012;BME280;2020;48.682;9.024;2023-02-24T15:14:03;95161.97;;;8.77;77.46
4012;BME280;2020;48.682;9.024;2023-02-24T15:16:37;95154.00;;;8.78;77.41
4012;BME280;2020;48.682;9.024;2023-02-24T15:21:46;95153.03;;;8.80;77.95
4012;BME280;2020;48.682;9.024;2023-02-24T15:24:26;95147.22;;;8.77;77.25
4012;BME280;2020;48.682;9.024;2023-02-24T15:26:59;95148.34;;;8.75;76.57
4012;BME280;2020;48.682;9.024;2023-02-24T15:29:28;95144.69;;;8.69;77.00
4012;BME280;2020;48.682;9.024;2023-02-24T15:31:54;95136.28;;;8.67;77.48